地図

経路データ

SID SEASON NUMBER BASIN SUBBASIN NAME ISO_TIME NATURE LAT LON WMO_WIND WMO_PRES WMO_AGENCY TRACK_TYPE DIST2LAND LANDFALL IFLAG USA_AGENCY USA_ATCF_ID USA_LAT USA_LON USA_RECORD USA_STATUS USA_WIND USA_PRES USA_SSHS USA_R34_NE USA_R34_SE USA_R34_SW USA_R34_NW USA_R50_NE USA_R50_SE USA_R50_SW USA_R50_NW USA_R64_NE USA_R64_SE USA_R64_SW USA_R64_NW USA_POCI USA_ROCI USA_RMW USA_EYE TOKYO_LAT TOKYO_LON TOKYO_GRADE TOKYO_WIND TOKYO_PRES TOKYO_R50_DIR TOKYO_R50_LONG TOKYO_R50_SHORT TOKYO_R30_DIR TOKYO_R30_LONG TOKYO_R30_SHORT TOKYO_LAND CMA_LAT CMA_LON CMA_CAT CMA_WIND CMA_PRES HKO_LAT HKO_LON HKO_CAT HKO_WIND HKO_PRES NEWDELHI_LAT NEWDELHI_LON NEWDELHI_GRADE NEWDELHI_WIND NEWDELHI_PRES NEWDELHI_CI NEWDELHI_DP NEWDELHI_POCI REUNION_LAT REUNION_LON REUNION_TYPE REUNION_WIND REUNION_PRES REUNION_TNUM REUNION_CI REUNION_RMW REUNION_R34_NE REUNION_R34_SE REUNION_R34_SW REUNION_R34_NW REUNION_R50_NE REUNION_R50_SE REUNION_R50_SW REUNION_R50_NW REUNION_R64_NE REUNION_R64_SE REUNION_R64_SW REUNION_R64_NW BOM_LAT BOM_LON BOM_TYPE BOM_WIND BOM_PRES BOM_TNUM BOM_CI BOM_RMW BOM_R34_NE BOM_R34_SE BOM_R34_SW BOM_R34_NW BOM_R50_NE BOM_R50_SE BOM_R50_SW BOM_R50_NW BOM_R64_NE BOM_R64_SE BOM_R64_SW BOM_R64_NW BOM_ROCI BOM_POCI BOM_EYE BOM_POS_METHOD BOM_PRES_METHOD NADI_LAT NADI_LON NADI_CAT NADI_WIND NADI_PRES WELLINGTON_LAT WELLINGTON_LON WELLINGTON_WIND WELLINGTON_PRES DS824_LAT DS824_LON DS824_STAGE DS824_WIND DS824_PRES TD9636_LAT TD9636_LON TD9636_STAGE TD9636_WIND TD9636_PRES TD9635_LAT TD9635_LON TD9635_WIND TD9635_PRES TD9635_ROCI NEUMANN_LAT NEUMANN_LON NEUMANN_CLASS NEUMANN_WIND NEUMANN_PRES MLC_LAT MLC_LON MLC_CLASS MLC_WIND MLC_PRES USA_GUST BOM_GUST BOM_GUST_PER REUNION_GUST REUNION_GUST_PER USA_SEAHGT USA_SEARAD_NE USA_SEARAD_SE USA_SEARAD_SW USA_SEARAD_NW STORM_SPEED STORM_DIR
1980308S05102 1981 94 SI WA ADELAIDE:ALICE 1980-11-03 00:00:00 TS -4.90000 102.000 main 102 102 ____________O_ -1 -4.90000 102.000 TC 15 1006 7 231
1980308S05102 1981 94 SI WA ADELAIDE:ALICE 1980-11-03 03:00:00 TS -5.12003 101.730 main 140 140 ____________P_ -1 -5.12003 101.730 TC 15 1006 4 231
1980308S05102 1981 94 SI WA ADELAIDE:ALICE 1980-11-03 06:00:00 TS -5.14000 101.700 20 1006 bom main 140 140 ______O__O__O_ -1 -4.90000 102.000 20 20 1006 1.00000 -4.90000 102.000 TC 15 1006 -5.30000 101.500 TC 15 1006 2 233
1980308S05102 1981 94 SI WA ADELAIDE:ALICE 1980-11-03 09:00:00 TS -5.26751 101.533 main 170 170 ______P__P__P_ -1 -5.12003 101.730 20 20 1006 -5.12003 101.730 TC 15 1006 -5.41498 101.335 TC 17 1005 4 233
1980308S05102 1981 94 SI WA ADELAIDE:ALICE 1980-11-03 12:00:00 TS -5.38000 101.380 20 1006 bom main 185 185 ______O__O__O_ -1 -5.30000 101.500 20 20 1006 1.00000 -5.30000 101.500 TC 15 1006 -5.50000 101.200 TC 20 1005 4 235
1980308S05102 1981 94 SI WA ADELAIDE:ALICE 1980-11-03 15:00:00 TS -5.47666 101.237 main 207 207 ______P__P__P_ -1 -5.41498 101.335 20 20 1005 -5.41498 101.335 TC 17 1005 -5.60000 101.043 TC 20 1004 3 236
1980308S05102 1981 94 SI WA ADELAIDE:ALICE 1980-11-03 18:00:00 TS -5.56667 101.100 20 1005 bom main 223 223 ______O__O__O_ -1 -5.50000 101.200 20 20 1005 1.00000 -5.50000 101.200 TC 20 1005 -5.70000 100.900 TC 20 1004 3 236
1980308S05102 1981 94 SI WA ADELAIDE:ALICE 1980-11-03 21:00:00 TS -5.66667 100.959 main 238 238 ______P__P__P_ -1 -5.60000 101.043 20 22 1004 -5.60000 101.043 TC 20 1004 -5.79999 100.792 TC 20 1004 3 233
1980308S05102 1981 94 SI WA ADELAIDE:ALICE 1980-11-04 00:00:00 TS -5.76667 100.833 25 1004 bom main 261 261 ______O__O__O_ -1 -5.70000 100.900 20 25 1004 1.50000 -5.70000 100.900 TC 20 1004 -5.90000 100.700 TC 20 1004 3 229
1980308S05102 1981 94 SI WA ADELAIDE:ALICE 1980-11-04 03:00:00 TS -5.86916 100.728 main 277 277 ______P__P__P_ -1 -5.79999 100.792 20 25 1004 -5.79999 100.792 TC 20 1004 -6.00750 100.600 TC 22 1003 3 225
1980308S05102 1981 94 SI WA ADELAIDE:ALICE 1980-11-04 06:00:00 TS -5.96667 100.633 25 1004 bom main 292 292 ______O__O__O_ -1 -5.90000 100.700 20 25 1004 1.50000 -5.90000 100.700 TC 20 1004 -6.10000 100.500 TC 25 1003 3 226
1980308S05102 1981 94 SI WA ADELAIDE:ALICE 1980-11-04 09:00:00 TS -6.05500 100.533 main 308 308 ______P__P__P_ -1 -6.00750 100.600 20 25 1003 -6.00750 100.600 TC 22 1003 -6.15000 100.400 TC 25 1003 3 230
1980308S05102 1981 94 SI WA ADELAIDE:ALICE 1980-11-04 12:00:00 TS -6.13333 100.433 25 1003 bom main 315 315 ______O__O__O_ -1 -6.10000 100.500 20 25 1003 2.00000 -6.10000 100.500 TC 25 1003 -6.20000 100.300 TC 25 1003 2 234
1980308S05102 1981 94 SI WA ADELAIDE:ALICE 1980-11-04 15:00:00 TS -6.20000 100.333 main 331 331 ______P__P__P_ -1 -6.15000 100.400 20 25 1003 -6.15000 100.400 TC 25 1003 -6.30000 100.200 TC 25 1002 2 236
1980308S05102 1981 94 SI WA ADELAIDE:ALICE 1980-11-04 18:00:00 TS -6.26667 100.233 25 1003 bom main 347 347 ______O__O__O_ -1 -6.20000 100.300 20 25 1003 2.00000 -6.20000 100.300 TC 25 1003 -6.40000 100.100 TC 25 1002 2 233
1980308S05102 1981 94 SI WA ADELAIDE:ALICE 1980-11-04 21:00:00 TS -6.34750 100.136 main 354 354 ______P__P__P_ -1 -6.30000 100.200 20 25 1002 -6.30000 100.200 TC 25 1002 -6.44249 100.007 TC 25 1002 3 230
1980308S05102 1981 94 SI WA ADELAIDE:ALICE 1980-11-05 00:00:00 TS -6.43333 100.033 25 1002 bom main 370 370 ______O__O__O_ -1 -6.40000 100.100 20 25 1002 2.00000 -6.40000 100.100 TC 25 1002 -6.50000 99.9000 TC 25 1002 3 232
1980308S05102 1981 94 SI WA ADELAIDE:ALICE 1980-11-05 03:00:00 TS -6.50665 99.9316 main 386 386 ______P__P__P_ -1 -6.44249 100.007 20 25 1002 -6.44249 100.007 TC 25 1002 -6.63497 99.7800 TC 30 1000 3 234
1980308S05102 1981 94 SI WA ADELAIDE:ALICE 1980-11-05 06:00:00 TS -6.60000 99.8000 25 1002 bom main 402 402 ______O__O__O_ -1 -6.50000 99.9000 20 25 1002 2.00000 -6.50000 99.9000 TC 25 1002 -6.80000 99.6000 TC 35 998 4 232
1980308S05102 1981 94 SI WA ADELAIDE:ALICE 1980-11-05 09:00:00 TS -6.73748 99.6300 main 425 425 ______P__P__P_ -1 -6.63497 99.7800 20 27 1000 -6.63497 99.7800 TC 30 1000 -6.94250 99.3300 TC 37 996 5 233
1980308S05102 1981 94 SI WA ADELAIDE:ALICE 1980-11-05 12:00:00 TS -6.90000 99.4000 30 998 bom main 456 456 ______O__O__O_ -1 -6.80000 99.6000 20 30 998 2.50000 -6.80000 99.6000 TC 35 998 -7.10000 99.0000 TC 40 994 6 238
1980308S05102 1981 94 SI WA ADELAIDE:ALICE 1980-11-05 15:00:00 TS -7.06165 99.1108 main 496 496 ______P__P__P_ -1 -6.94250 99.3300 20 32 996 -6.94250 99.3300 TC 37 996 -7.29995 98.6725 TC 42 992 7 242
1980308S05102 1981 94 SI WA ADELAIDE:ALICE 1980-11-05 18:00:00 TS -7.23333 98.7667 35 994 bom main 528 528 ______O__O__O_ -1 -7.10000 99.0000 30 35 994 3.00000 -7.10000 99.0000 TC 40 994 -7.50000 98.3000 TC 45 990 8 243
1980308S05102 1981 94 SI WA ADELAIDE:ALICE 1980-11-05 21:00:00 TS -7.41913 98.4033 main 575 575 ______P__P__P_ -1 -7.29995 98.6725 30 40 992 -7.29995 98.6725 TC 42 992 -7.65750 97.8650 TC 50 987 8 244
1980308S05102 1981 94 SI WA ADELAIDE:ALICE 1980-11-06 00:00:00 TS -7.60000 98.0000 45 990 bom main 623 623 ______O__O__O_ -1 -7.50000 98.3000 30 45 990 3.00000 -7.50000 98.3000 TC 45 990 -7.80000 97.4000 TC 55 985 9 248
1980308S05102 1981 94 SI WA ADELAIDE:ALICE 1980-11-06 03:00:00 TS -7.75747 97.5625 main 672 672 ______P__P__P_ -1 -7.65750 97.8650 30 47 987 -7.65750 97.8650 TC 50 987 -7.95743 96.9575 TC 60 981 9 251
1980308S05102 1981 94 SI WA ADELAIDE:ALICE 1980-11-06 06:00:00 TS -7.90000 97.1000 50 985 bom main 718 718 ______O__O__O_ -1 -7.80000 97.4000 30 50 985 3.50000 -7.80000 97.4000 TC 55 985 -8.10000 96.5000 TC 65 977 10 253
1980308S05102 1981 94 SI WA ADELAIDE:ALICE 1980-11-06 09:00:00 TS -8.03825 96.6458 main 747 747 ______P__P__P_ -1 -7.95743 96.9575 30 55 981 -7.95743 96.9575 TC 60 981 -8.19991 96.0224 TC 72 972 10 254
1980308S05102 1981 94 SI WA ADELAIDE:ALICE 1980-11-06 12:00:00 TS -8.16667 96.1667 60 977 bom main 785 785 ______O__O__O_ -1 -8.10000 96.5000 30 60 977 4.00000 -8.10000 96.5000 TC 65 977 -8.30000 95.5000 TC 80 967 10 256
1980308S05102 1981 94 SI WA ADELAIDE:ALICE 1980-11-06 15:00:00 TS -8.28074 95.6583 main 820 820 ______P__P__P_ -1 -8.19991 96.0224 30 67 972 -8.19991 96.0224 TC 70 972 -8.44240 94.9300 TC 85 962 11 258
1980308S05102 1981 94 SI WA ADELAIDE:ALICE 1980-11-06 18:00:00 TS -8.40000 95.1000 75 967 bom main 860 860 ______O__O__O_ -1 -8.30000 95.5000 40 75 967 4.50000 -8.30000 95.5000 TC 75 967 -8.60000 94.3000 TC 90 958 12 257
1980308S05102 1981 94 SI WA ADELAIDE:ALICE 1980-11-06 21:00:00 TS -8.53996 94.4841 main 904 904 ______P__P__P_ -1 -8.44240 94.9300 40 80 962 -8.44240 94.9300 TC 80 962 -8.73507 93.5924 TC 95 954 13 257
1980308S05102 1981 94 SI WA ADELAIDE:ALICE 1980-11-07 00:00:00 TS -8.70000 93.8333 85 958 bom main 966 966 ______O__O__O_ -1 -8.60000 94.3000 40 85 958 5.00000 -8.60000 94.3000 TC 85 958 -8.90000 92.9000 TC 100 950 13 256
1980308S05102 1981 94 SI WA ADELAIDE:ALICE 1980-11-07 03:00:00 TS -8.86830 93.1733 main 1024 1024 ______P__P__P_ -1 -8.73507 93.5924 40 90 954 -8.73507 93.5924 TC 90 954 -9.13477 92.3350 TC 102 948 13 254
1980308S05102 1981 94 SI WA ADELAIDE:ALICE 1980-11-07 06:00:00 TS -9.06667 92.5333 95 950 bom main 1090 1090 ______O__O__O_ -1 -8.90000 92.9000 40 95 950 5.50000 -8.90000 92.9000 TC 95 950 -9.40000 91.8000 TC 105 946 13 250
1980308S05102 1981 94 SI WA ADELAIDE:ALICE 1980-11-07 09:00:00 TS -9.30649 91.9591 main 1143 1143 ______P__P__P_ -1 -9.13477 92.3350 40 97 948 -9.13477 92.3350 TC 97 948 -9.64993 91.2074 TC 105 944 12 246
1980308S05102 1981 94 SI WA ADELAIDE:ALICE 1980-11-07 12:00:00 TS -9.56667 91.4000 100 946 bom main 1213 1213 ______O__O__O_ -1 -9.40000 91.8000 40 100 946 6.00000 -9.40000 91.8000 TC 100 946 -9.90000 90.6000 TC 105 942 12 246
1980308S05102 1981 94 SI WA ADELAIDE:ALICE 1980-11-07 15:00:00 TS -9.82154 90.8124 main 1275 1275 ______P__P__P_ -1 -9.64993 91.2074 40 100 944 -9.64993 91.2074 TC 100 944 -10.1648 90.0224 TC 107 941 13 247
1980308S05102 1981 94 SI WA ADELAIDE:ALICE 1980-11-07 18:00:00 TS -10.0667 90.2000 100 942 bom main 1346 1346 ______O__O__O_ -1 -9.90000 90.6000 40 100 942 6.00000 -9.90000 90.6000 TC 100 942 -10.4000 89.4000 TC 110 940 13 249
1980308S05102 1981 94 SI MM ADELAIDE:ALICE 1980-11-07 21:00:00 TS -10.3032 89.5650 main 1409 1409 ______P__P__P_ -1 -10.1648 90.0224 40 102 941 -10.1648 90.0224 TC 102 941 -10.5801 88.6500 TC 110 940 14 251
1980308S05102 1981 94 SI MM ADELAIDE:ALICE 1980-11-08 00:00:00 TS -10.5000 88.9000 105 940 bom main 1481 1481 ______O__O__O_ -1 -10.4000 89.4000 40 105 940 6.00000 -10.4000 89.4000 TC 105 940 -10.7000 87.9000 TC 110 940 14 256
1980308S05102 1981 94 SI MM ADELAIDE:ALICE 1980-11-08 03:00:00 TS -10.6392 88.1899 main 1547 1547 ______P__P__P_ -1 -10.5801 88.6500 40 105 940 -10.5801 88.6500 TC 105 940 -10.7573 87.2698 TC 107 942 14 260
1980308S05102 1981 94 SI MM ADELAIDE:ALICE 1980-11-08 06:00:00 TS -10.7333 87.5000 105 940 bom main 1613 1613 ______O__O__O_ -1 -10.7000 87.9000 40 105 940 6.00000 -10.7000 87.9000 TC 105 940 -10.8000 86.7000 TC 105 945 13 263
1980308S05102 1981 94 SI MM ADELAIDE:ALICE 1980-11-08 09:00:00 TS -10.8023 86.8891 main 1672 1672 ______P__P__P_ -1 -10.7573 87.2698 40 102 942 -10.7573 87.2698 TC 102 942 -10.8924 86.1275 TC 102 947 12 263
1980308S05102 1981 94 SI MM ADELAIDE:ALICE 1980-11-08 12:00:00 TS -10.8667 86.3333 100 945 bom main 1732 1732 ______O__O__O_ -1 -10.8000 86.7000 40 100 945 6.00000 -10.8000 86.7000 TC 100 945 -11.0000 85.6000 TC 100 950 11 262
1980308S05102 1981 94 SI MM ADELAIDE:ALICE 1980-11-08 15:00:00 TS -10.9591 85.7942 main 1783 1783 ______P__P__P_ -1 -10.8924 86.1275 40 97 947 -10.8924 86.1275 TC 97 947 -11.0924 85.1274 TC 97 952 10 259
1980308S05102 1981 94 SI MM ADELAIDE:ALICE 1980-11-08 18:00:00 TS -11.0667 85.3000 95 950 bom main 1834 1834 ______O__O__O_ -1 -11.0000 85.6000 40 95 950 5.50000 -11.0000 85.6000 TC 95 950 -11.2000 84.7000 TC 95 955 10 257
1980308S05102 1981 94 SI MM ADELAIDE:ALICE 1980-11-08 21:00:00 TS -11.1757 84.8516 main 1877 1877 ______P__P__P_ -1 -11.0924 85.1274 40 92 952 -11.0924 85.1274 TC 92 952 -11.3424 84.3000 TC 90 957 9 255
1980308S05102 1981 94 SI MM ADELAIDE:ALICE 1980-11-09 00:00:00 TS -11.3000 84.4333 90 955 bom main 1929 1929 ______O__O__O_ -1 -11.2000 84.7000 40 90 955 5.50000 -11.2000 84.7000 TC 90 955 -11.5000 83.9000 TC 85 960 9 252
1980308S05102 1981 94 SI MM ADELAIDE:ALICE 1980-11-09 03:00:00 TS -11.4449 84.0166 main 1971 1971 ______P__P__P_ -1 -11.3424 84.3000 40 87 957 -11.3424 84.3000 TC 87 957 -11.6500 83.4500 TC 85 960 8 247
1980308S05102 1981 94 SI MM ADELAIDE:ALICE 1980-11-09 06:00:00 TS -11.6062 83.7000 85 960 bom main 1990 1986 O____OO__OO_O_ jtwc_sh SH011981 -11.5000 84.0000 -1 -12.0000 84.0000 4 9.90000 -11.5000 83.9000 40 85 960 5.00000 -11.5000 83.9000 TC 85 960 -11.5000 84.0000 2 -11.8000 83.0000 TC 85 960 7 253
1980308S05102 1981 94 SI MM ADELAIDE:ALICE 1980-11-09 09:00:00 TS -11.6671 83.2953 main 1994 1988 P____PP__PP_P_ SH011981 -11.3828 83.4224 -1 -12.0275 83.6701 4 -11.6500 83.4500 40 85 960 -11.6500 83.4500 TC 85 960 -11.3930 83.4836 2 -11.9425 82.5774 TC 85 960 8 264
1980308S05102 1981 94 SI MM ADELAIDE:ALICE 1980-11-09 12:00:00 TS -11.6898 82.8772 85 960 bom main 1988 1983 O____OO__OP_O_ jtwc_sh SH011981 -11.3000 82.9000 -1 -12.0000 83.3000 99 9.90000 -11.8000 83.0000 40 85 960 5.00000 -11.8000 83.0000 TC 85 960 -11.3184 82.9840 2 -12.1000 82.2000 TC 85 960 8 266
1980308S05102 1981 94 SI MM ADELAIDE:ALICE 1980-11-09 15:00:00 TS -11.7192 82.4750 main 1983 1980 P____PP__PP_P_ SH011981 -11.2899 82.4700 -1 -11.8925 82.8648 99 -11.9425 82.5774 40 85 960 -11.9425 82.5774 TC 85 960 -11.3096 82.5175 2 -12.3675 81.8476 TC 85 960 8 261
1980308S05102 1981 94 SI MM ADELAIDE:ALICE 1980-11-09 18:00:00 TS -11.8143 82.1000 85 960 bom main 1990 1989 O____OO__OO_O_ jtwc_sh SH011981 -11.4000 82.1000 -1 -11.8000 82.4000 99 9.90000 -12.1000 82.2000 40 85 960 5.00000 -12.1000 82.2000 TC 85 960 -11.4000 82.1000 2 -12.5000 81.6000 TC 85 960 7 253
1980308S05102 1981 94 SI MM ADELAIDE:ALICE 1980-11-09 21:00:00 TS -11.9319 81.7844 main 1998 1998 P____PP__PP_P_ SH011981 -11.6700 81.7202 -1 -11.7974 81.9499 99 -12.2924 81.8924 40 85 960 -12.2924 81.8924 TC 85 960 -11.6088 81.7437 2 -12.1923 81.5724 TC 80 7 244
1980308S05102 1981 94 SI MM ADELAIDE:ALICE 1980-11-10 00:00:00 TS -12.0996 81.4922 85 960 bom main 2019 2018 O____OO__OP_O_ jtwc_sh SH011981 -12.0000 81.4000 -1 -11.9000 81.5000 99 9.90000 -12.5000 81.6000 40 85 960 5.00000 -12.5000 81.6000 TC 85 960 -11.8972 81.4457 2 -11.9000 81.5000 TC 75 7 236
1980308S05102 1981 94 SI MM ADELAIDE:ALICE 1980-11-10 03:00:00 TS -12.3393 81.1565 main 2040 2040 P____PP__PP_P_ SH011981 -12.2724 81.1699 -1 -12.1351 81.0052 99 -12.7000 81.2425 40 85 960 -12.7000 81.2425 TC 85 960 -12.2120 81.1998 2 -12.0828 81.0654 TC 72 8 232
1980308S05102 1981 94 SI MM ADELAIDE:ALICE 1980-11-10 06:00:00 TS -12.5857 80.8571 85 960 bom main 2073 2072 O____OO__OO_O_ jtwc_sh SH011981 -12.5000 81.0000 -1 -12.4000 80.6000 4 9.90000 -12.9000 80.9000 40 85 960 5.00000 -12.9000 80.9000 TC 85 960 -12.5000 81.0000 2 -12.4000 80.6000 TC 70 6 227
1980308S05102 1981 94 SI MM ADELAIDE:ALICE 1980-11-10 09:00:00 TS -12.7711 80.6791 main 2095 2095 P____PP__PP_P_ SH011981 -12.6650 80.8350 -1 -12.5649 80.4049 4 -13.1220 80.7174 40 85 960 -13.1220 80.7174 TC 85 960 -12.6939 80.8397 2 -12.5649 80.4049 TC 67 5 228
1980308S05102 1981 94 SI MM ADELAIDE:ALICE 1980-11-10 12:00:00 TS -12.8927 80.5107 85 960 bom main 2106 2106 O____OO__OP_O_ jtwc_sh SH011981 -12.8000 80.7000 -1 -12.7000 80.3000 99 9.90000 -13.3000 80.4000 40 85 960 5.00000 -13.3000 80.4000 TC 85 960 -12.8522 80.7196 2 -12.7000 80.3000 TC 65 4 238
1980308S05102 1981 94 SI MM ADELAIDE:ALICE 1980-11-10 15:00:00 TS -12.9968 80.3050 main 2117 2117 P____PP__PP_P_ SH011981 -12.9575 80.6000 -1 -12.8500 80.1500 99 -13.3811 79.7150 40 85 960 -13.3811 79.7150 TC 85 960 -12.9845 80.6148 2 -12.8500 80.1500 TC 62 4 240
1980308S05102 1981 94 SI MM ADELAIDE:ALICE 1980-11-10 18:00:00 TS -13.0909 80.1636 reunion main 2129 2129 O____OO__OO_O_ jtwc_sh SH011981 -13.1000 80.5000 -1 -13.0000 80.0000 99 9.90000 -13.4000 78.8000 40 85 960 5.00000 -13.4000 78.8000 TC 85 960 -13.1000 80.5000 2 -13.0000 80.0000 TC 60 2 217
1980308S05102 1981 94 SI MM ADELAIDE:ALICE 1980-11-10 21:00:00 TS -13.1760 80.1687 main 2140 2140 P____P____P_P_ SH011981 -13.2075 80.3650 -1 -13.1275 79.8649 99 40 TC -13.2100 80.3838 2 -13.1275 79.8649 TC 57 3 215
1980308S05102 1981 94 SI MM ADELAIDE:ALICE 1980-11-11 00:00:00 TS -13.3014 80.0094 reunion main 2152 2152 O____O____P_O_ jtwc_sh SH011981 -13.3000 80.2000 -1 -13.3000 79.7000 99 9.90000 -13.3070 80.2471 2 -13.3000 79.7000 TC 55 5 229
1980308S05102 1981 94 SI MM ADELAIDE:ALICE 1980-11-11 03:00:00 TS -13.4861 79.8074 main 2175 2175 P____P____P_P_ SH011981 -13.3999 80.0375 -1 -13.6151 79.4502 99 -13.4005 80.0619 2 -13.6151 79.4502 TC 52 6 231
1980308S05102 1981 94 SI MM ADELAIDE:ALICE 1980-11-11 06:00:00 TS -13.6600 79.5600 reunion main 2198 2198 O____O____O_O_ jtwc_sh SH011981 -13.5000 79.8000 -1 -13.9000 79.2000 3 9.90000 -13.5000 79.8000 2 -13.9000 79.2000 TC 50 6 242
1980308S05102 1981 94 SI MM ADELAIDE:ALICE 1980-11-11 09:00:00 TS -13.7567 79.2844 main 2211 2211 P____P____P_P_ SH011981 -13.5925 79.4449 -1 -13.9799 79.0573 3 -13.6386 79.4173 2 -13.9799 79.0573 TC 50 6 253
1980308S05102 1981 94 SI MM ADELAIDE:ALICE 1980-11-11 12:00:00 TS -13.8361 78.9521 reunion main 2214 2214 O____O____P_O_ jtwc_sh SH011981 -13.7000 79.0000 -1 -14.0000 78.9000 99 9.90000 -13.7806 78.9606 2 -14.0000 78.9000 TC 50 8 254
1980308S05102 1981 94 SI MM ADELAIDE:ALICE 1980-11-11 15:00:00 TS -13.9675 78.5378 main 2241 2241 P____P____P_P_ SH011981 -13.8576 78.4926 -1 -14.1076 78.6151 99 -13.9073 78.4735 2 -14.1076 78.6151 TC 47 8 253
1980308S05102 1981 94 SI MM ADELAIDE:ALICE 1980-11-11 18:00:00 TS -14.0800 78.1200 reunion main 2257 2233 O____O____O_O_ jtwc_sh SH011981 -14.0000 78.0000 -1 -14.2000 78.3000 99 9.90000 -14.0000 78.0000 2 -14.2000 78.3000 TC 45 7 256
1980308S05102 1981 94 SI MM ADELAIDE:ALICE 1980-11-11 21:00:00 TS -14.1472 77.8041 main 2233 2198 P____P____P_P_ SH011981 -14.0798 77.6350 -1 -14.2299 78.0650 99 -14.1166 77.6203 2 -14.2299 78.0650 TC 42 6 263
1980308S05102 1981 94 SI MM ADELAIDE:ALICE 1980-11-12 00:00:00 TS -14.1573 77.4917 reunion main 2198 2162 O____O____P_O_ jtwc_sh SH011981 -14.1000 77.3000 -1 -14.2000 77.8000 99 9.90000 -14.1867 77.2587 2 -14.2000 77.8000 TC 40 7 271
1980308S05102 1981 94 SI MM ADELAIDE:ALICE 1980-11-12 03:00:00 TS -14.1347 77.1136 main 2162 2126 P____P____P_P_ SH011981 -14.1249 76.9153 -1 -14.1300 77.4225 99 -14.1634 76.8926 2 -14.1300 77.4225 TC 40 8 282
1980308S05102 1981 94 SI MM ADELAIDE:ALICE 1980-11-12 06:00:00 TS -14.0000 76.7000 reunion main 2126 2095 O____O____O_O_ jtwc_sh SH011981 -14.0000 76.5000 -1 -14.0000 77.0000 3 9.90000 -14.0000 76.5000 2 -14.0000 77.0000 TC 40 9 298
1980308S05102 1981 94 SI MM ADELAIDE:ALICE 1980-11-12 09:00:00 TS -13.7145 76.2842 main 2099 2073 P____P____P_P_ SH011981 -13.6249 76.0649 -1 -13.8598 76.6153 3 -13.6030 76.0605 2 -13.8598 76.6153 TC 40 11 310
1980308S05102 1981 94 SI MM ADELAIDE:ALICE 1980-11-12 12:00:00 TS -13.2950 75.8386 reunion main 2068 2048 O____O____P_O_ jtwc_sh SH011981 -13.1000 75.6000 -1 -13.6000 76.2000 99 9.90000 -13.0748 75.5930 2 -13.6000 76.2000 TC 40 13 316
1980308S05102 1981 94 SI MM ADELAIDE:ALICE 1980-11-12 15:00:00 TS -12.7618 75.3527 main 2053 2031 P____P____P_P_ SH011981 -12.5200 75.0998 -1 -13.1299 75.7298 99 -12.5091 75.1043 2 -13.1299 75.7298 TC 40 14 317
1980308S05102 1981 94 SI MM ADELAIDE:ALICE 1980-11-12 18:00:00 TS -12.2400 74.8400 reunion main 2026 1999 O____O____O_O_ jtwc_sh SH011981 -12.0000 74.6000 -1 -12.6000 75.2000 99 9.90000 -12.0000 74.6000 2 -12.6000 75.2000 TC 40 13 311
1980308S05102 1981 94 SI MM ADELAIDE:ALICE 1980-11-12 21:00:00 TS -11.9022 74.3418 main 1996 1965 P____P____P_P_ SH011981 -11.7048 74.1654 -1 -12.2000 74.6153 99 -11.7015 74.1477 2 -12.2000 74.6153 TC 37 12 302
1980308S05102 1981 94 SI MM ADELAIDE:ALICE 1980-11-13 00:00:00 TS -11.6137 73.8144 reunion main 1965 1937 O____O____P_O_ jtwc_sh SH011981 -11.5000 73.7000 -1 -11.8000 74.0000 99 9.90000 -11.4684 73.6720 2 -11.8000 74.0000 TC 35 12 300
1980308S05102 1981 94 SI MM ADELAIDE:ALICE 1980-11-13 03:00:00 TS -11.2790 73.2602 main 1937 1900 P____P____P_P_ SH011981 -11.2723 73.1527 -1 -11.2997 73.4301 99 -11.2512 73.1353 2 -11.2997 73.4301 TC 35 14 301
1980308S05102 1981 94 SI MM ADELAIDE:ALICE 1980-11-13 06:00:00 TS -10.9200 72.6200 reunion main 1898 1855 O____O____O_O_ jtwc_sh SH011981 -11.0000 72.5000 -1 -10.8000 72.8000 2 9.90000 -11.0000 72.5000 2 -10.8000 72.8000 TC 35 16 299
1980308S05102 1981 94 SI MM ADELAIDE:ALICE 1980-11-13 09:00:00 TS -10.5189 71.8565 main 1862 1814 P____P____P_P_ SH011981 -10.6223 71.7525 -1 -10.3776 72.0226 2 -10.5947 71.7323 2 -10.3776 72.0226 TC 35 18 297
1980308S05102 1981 94 SI MM ADELAIDE:ALICE 1980-11-13 12:00:00 TS -10.1111 71.0136 reunion main 1812 1776 O____O____P_O_ jtwc_sh SH011981 -10.2000 70.9000 -1 -10.0000 71.2000 99 9.90000 -10.1553 70.8678 2 -10.0000 71.2000 TC 35 18 296
1980308S05102 1981 94 SI MM ADELAIDE:ALICE 1980-11-13 15:00:00 TS -9.70033 70.1789 main 1776 1728 P____P____P_P_ SH011981 -9.76998 69.9649 -1 -9.61177 70.5101 99 -9.73816 69.9446 2 -9.61177 70.5101 TC 35 19 294
1980308S05102 1981 94 SI MM ADELAIDE:ALICE 1980-11-13 18:00:00 TS -9.36000 69.2800 reunion main 1728 1676 O____O____O_O_ jtwc_sh SH011981 -9.40000 69.0000 -1 -9.30000 69.7000 99 9.90000 -9.40000 69.0000 2 -9.30000 69.7000 TC 35 20 287
1980308S05102 1981 94 SI MM ADELAIDE:ALICE 1980-11-13 21:00:00 TS -9.13147 68.2767 main 1677 1615 P____P____P_P_ SH011981 -9.13967 68.1002 -1 -9.09776 68.5599 99 -9.18248 68.0635 2 -9.09776 68.5599 TC 35 21 280
1980308S05102 1981 94 SI MM ADELAIDE:ALICE 1980-11-14 00:00:00 TS -9.01326 67.2274 reunion main 1608 1548 O____O____P_O_ jtwc_sh SH011981 -9.00000 67.2000 -1 -9.00000 67.3000 99 9.90000 -9.06631 67.1371 2 -9.00000 67.3000 TC 35 21 274
1980308S05102 1981 94 SI MM ADELAIDE:ALICE 1980-11-14 03:00:00 TS -8.98375 66.1955 main 1542 1481 P____P____P_P_ SH011981 -8.97056 66.2626 -1 -8.98031 66.1177 99 -9.01700 66.2170 2 -8.98031 66.1177 TC 35 20 270
1980308S05102 1981 94 SI MM ADELAIDE:ALICE 1980-11-14 06:00:00 TS -9.00000 65.1800 reunion main 1481 O____O____O_O_ jtwc_sh SH011981 -9.00000 65.3000 -1 -9.00000 65.0000 99 9.90000 -9.00000 65.3000 2 -9.00000 65.0000 TC 35 20 269

IBTrACS Databaseについて

本データベースは、米国NOAAが公開する1842年以降の世界の熱帯低気圧のベストトラックデータアーカイブInternational Best Track Archive for Climate Stewardship (IBTrACS)を、ウェブで閲覧しやすい形式に変換したものです。

最終更新日:2021-12-06